sensor_id;sensor_type;location;lat;lon;timestamp;temperature;humidity
70368;DHT22;57789;53.868;10.728;2022-12-29T00:02:24;7.50;99.90
70368;DHT22;57789;53.868;10.728;2022-12-29T00:04:50;7.50;99.90
70368;DHT22;57789;53.868;10.728;2022-12-29T00:07:20;7.60;99.90
70368;DHT22;57789;53.868;10.728;2022-12-29T00:09:46;7.60;99.90
70368;DHT22;57789;53.868;10.728;2022-12-29T00:12:11;7.60;99.90
70368;DHT22;57789;53.868;10.728;2022-12-29T00:14:37;7.60;99.90
70368;DHT22;57789;53.868;10.728;2022-12-29T00:17:24;7.60;99.90
70368;DHT22;57789;53.868;10.728;2022-12-29T00:19:50;7.70;99.90
70368;DHT22;57789;53.868;10.728;2022-12-29T00:22:34;7.70;99.90
70368;DHT22;57789;53.868;10.728;2022-12-29T00:25:18;7.70;99.90
70368;DHT22;57789;53.868;10.728;2022-12-29T00:28:02;7.70;99.90
70368;DHT22;57789;53.868;10.728;2022-12-29T00:30:47;7.70;99.90
70368;DHT22;57789;53.868;10.728;2022-12-29T00:33:33;7.70;99.90
70368;DHT22;57789;53.868;10.728;2022-12-29T00:36:27;7.80;99.90
70368;DHT22;57789;53.868;10.728;2022-12-29T00:39:06;7.90;99.90
70368;DHT22;57789;53.868;10.728;2022-12-29T00:42:08;7.90;99.90
70368;DHT22;57789;53.868;10.728;2022-12-29T00:45:03;7.90;99.90
70368;DHT22;57789;53.868;10.728;2022-12-29T00:47:32;8.00;99.90
70368;DHT22;57789;53.868;10.728;2022-12-29T00:49:57;8.00;99.90
70368;DHT22;57789;53.868;10.728;2022-12-29T00:52:23;8.00;99.90
70368;DHT22;57789;53.868;10.728;2022-12-29T00:54:49;8.00;99.90
70368;DHT22;57789;53.868;10.728;2022-12-29T00:57:14;8.00;99.90
70368;DHT22;57789;53.868;10.728;2022-12-29T00:59:42;8.10;99.90
70368;DHT22;57789;53.868;10.728;2022-12-29T01:02:11;8.10;99.90
70368;DHT22;57789;53.868;10.728;2022-12-29T01:04:37;8.10;99.90
70368;DHT22;57789;53.868;10.728;2022-12-29T01:07:03;8.10;99.90
70368;DHT22;57789;53.868;10.728;2022-12-29T01:09:30;8.20;99.90
70368;DHT22;57789;53.868;10.728;2022-12-29T01:12:15;8.20;99.90
70368;DHT22;57789;53.868;10.728;2022-12-29T01:14:40;8.20;99.90
70368;DHT22;57789;53.868;10.728;2022-12-29T01:17:09;8.20;99.90
70368;DHT22;57789;53.868;10.728;2022-12-29T01:19:35;8.30;99.90
70368;DHT22;57789;53.868;10.728;2022-12-29T01:22:01;8.30;99.90
70368;DHT22;57789;53.868;10.728;2022-12-29T01:24:29;8.30;99.90
70368;DHT22;57789;53.868;10.728;2022-12-29T01:26:55;8.30;99.90
70368;DHT22;57789;53.868;10.728;2022-12-29T01:29:21;8.30;99.90
70368;DHT22;57789;53.868;10.728;2022-12-29T01:31:50;8.30;99.90
70368;DHT22;57789;53.868;10.728;2022-12-29T01:34:17;8.30;99.90
70368;DHT22;57789;53.868;10.728;2022-12-29T01:36:43;8.40;99.90
70368;DHT22;57789;53.868;10.728;2022-12-29T01:39:08;8.30;99.90
70368;DHT22;57789;53.868;10.728;2022-12-29T01:41:37;8.30;99.90
70368;DHT22;57789;53.868;10.728;2022-12-29T01:47:11;8.30;99.90
70368;DHT22;57789;53.868;10.728;2022-12-29T01:49:39;8.30;99.90
70368;DHT22;57789;53.868;10.728;2022-12-29T01:52:07;8.30;99.90
70368;DHT22;57789;53.868;10.728;2022-12-29T01:54:42;8.30;99.90
70368;DHT22;57789;53.868;10.728;2022-12-29T01:57:23;8.30;99.90
70368;DHT22;57789;53.868;10.728;2022-12-29T01:59:55;8.40;99.90
70368;DHT22;57789;53.868;10.728;2022-12-29T02:02:25;8.40;99.90
70368;DHT22;57789;53.868;10.728;2022-12-29T02:04:58;8.40;99.90
70368;DHT22;57789;53.868;10.728;2022-12-29T02:07:27;8.40;99.90
70368;DHT22;57789;53.868;10.728;2022-12-29T02:09:55;8.40;99.90
70368;DHT22;57789;53.868;10.728;2022-12-29T02:12:22;8.50;99.90
70368;DHT22;57789;53.868;10.728;2022-12-29T02:14:51;8.50;99.90
70368;DHT22;57789;53.868;10.728;2022-12-29T02:26:13;8.50;99.90
70368;DHT22;57789;53.868;10.728;2022-12-29T02:38:35;8.50;99.90
70368;DHT22;57789;53.868;10.728;2022-12-29T02:46:38;8.50;99.90
70368;DHT22;57789;53.868;10.728;2022-12-29T02:49:47;8.50;99.90
70368;DHT22;57789;53.868;10.728;2022-12-29T02:52:18;8.50;99.90
70368;DHT22;57789;53.868;10.728;2022-12-29T02:54:49;8.60;99.90
70368;DHT22;57789;53.868;10.728;2022-12-29T02:57:31;8.60;99.90
70368;DHT22;57789;53.868;10.728;2022-12-29T03:00:06;8.70;99.90
70368;DHT22;57789;53.868;10.728;2022-12-29T03:06:09;8.70;99.90
70368;DHT22;57789;53.868;10.728;2022-12-29T03:11:59;8.70;99.90
70368;DHT22;57789;53.868;10.728;2022-12-29T03:14:58;8.80;99.90
70368;DHT22;57789;53.868;10.728;2022-12-29T03:18:02;8.80;99.90
70368;DHT22;57789;53.868;10.728;2022-12-29T03:20:39;8.80;99.90
70368;DHT22;57789;53.868;10.728;2022-12-29T03:23:05;8.80;99.90
70368;DHT22;57789;53.868;10.728;2022-12-29T03:25:35;8.80;99.90
70368;DHT22;57789;53.868;10.728;2022-12-29T03:28:29;8.80;99.90
70368;DHT22;57789;53.868;10.728;2022-12-29T03:30:58;8.80;99.90
70368;DHT22;57789;53.868;10.728;2022-12-29T03:33:26;8.80;99.90
70368;DHT22;57789;53.868;10.728;2022-12-29T03:35:58;8.80;99.90
70368;DHT22;57789;53.868;10.728;2022-12-29T03:38:35;8.90;99.90
70368;DHT22;57789;53.868;10.728;2022-12-29T03:41:07;8.90;99.90
70368;DHT22;57789;53.868;10.728;2022-12-29T03:43:34;8.90;99.90
70368;DHT22;57789;53.868;10.728;2022-12-29T03:46:00;8.90;99.90
70368;DHT22;57789;53.868;10.728;2022-12-29T03:48:26;8.90;99.90
70368;DHT22;57789;53.868;10.728;2022-12-29T03:50:53;8.90;99.90
70368;DHT22;57789;53.868;10.728;2022-12-29T03:53:19;8.90;99.90
70368;DHT22;57789;53.868;10.728;2022-12-29T03:55:45;8.90;99.90
70368;DHT22;57789;53.868;10.728;2022-12-29T03:58:13;8.90;99.90
70368;DHT22;57789;53.868;10.728;2022-12-29T04:00:39;9.00;99.90
70368;DHT22;57789;53.868;10.728;2022-12-29T04:03:08;9.00;99.90
70368;DHT22;57789;53.868;10.728;2022-12-29T04:05:33;9.00;99.90
70368;DHT22;57789;53.868;10.728;2022-12-29T04:08:02;9.00;99.90
70368;DHT22;57789;53.868;10.728;2022-12-29T04:10:28;9.00;99.90
70368;DHT22;57789;53.868;10.728;2022-12-29T04:12:54;9.00;99.90
70368;DHT22;57789;53.868;10.728;2022-12-29T04:15:19;9.10;99.90
70368;DHT22;57789;53.868;10.728;2022-12-29T04:17:45;9.10;99.90
70368;DHT22;57789;53.868;10.728;2022-12-29T04:20:10;9.20;99.90
70368;DHT22;57789;53.868;10.728;2022-12-29T04:23:02;9.10;99.90
70368;DHT22;57789;53.868;10.728;2022-12-29T04:25:30;9.20;99.90
70368;DHT22;57789;53.868;10.728;2022-12-29T04:27:55;9.20;99.90
70368;DHT22;57789;53.868;10.728;2022-12-29T04:30:21;9.20;99.90
70368;DHT22;57789;53.868;10.728;2022-12-29T04:32:47;9.20;99.90
70368;DHT22;57789;53.868;10.728;2022-12-29T04:35:13;9.30;99.90
70368;DHT22;57789;53.868;10.728;2022-12-29T04:37:41;9.30;99.90
70368;DHT22;57789;53.868;10.728;2022-12-29T04:40:09;9.30;99.90
70368;DHT22;57789;53.868;10.728;2022-12-29T04:42:35;9.30;99.90
70368;DHT22;57789;53.868;10.728;2022-12-29T04:45:01;9.30;99.90
70368;DHT22;57789;53.868;10.728;2022-12-29T04:47:26;9.30;99.90
70368;DHT22;57789;53.868;10.728;2022-12-29T04:49:52;9.40;99.90
70368;DHT22;57789;53.868;10.728;2022-12-29T04:52:18;9.40;99.90
70368;DHT22;57789;53.868;10.728;2022-12-29T04:54:44;9.40;99.90
70368;DHT22;57789;53.868;10.728;2022-12-29T04:57:10;9.40;99.90
70368;DHT22;57789;53.868;10.728;2022-12-29T04:59:35;9.40;99.90
70368;DHT22;57789;53.868;10.728;2022-12-29T05:02:01;9.40;99.90
70368;DHT22;57789;53.868;10.728;2022-12-29T05:04:29;9.40;99.90
70368;DHT22;57789;53.868;10.728;2022-12-29T05:06:55;9.40;99.90
70368;DHT22;57789;53.868;10.728;2022-12-29T05:09:21;9.50;99.90
70368;DHT22;57789;53.868;10.728;2022-12-29T05:11:47;9.50;99.90
70368;DHT22;57789;53.868;10.728;2022-12-29T05:14:12;9.50;99.90
70368;DHT22;57789;53.868;10.728;2022-12-29T05:16:42;9.50;99.90
70368;DHT22;57789;53.868;10.728;2022-12-29T05:19:08;9.50;99.90
70368;DHT22;57789;53.868;10.728;2022-12-29T05:21:34;9.50;99.90
70368;DHT22;57789;53.868;10.728;2022-12-29T05:23:59;9.50;99.90
70368;DHT22;57789;53.868;10.728;2022-12-29T05:26:28;9.50;99.90
70368;DHT22;57789;53.868;10.728;2022-12-29T05:28:55;9.50;99.90
70368;DHT22;57789;53.868;10.728;2022-12-29T05:31:21;9.50;99.90
70368;DHT22;57789;53.868;10.728;2022-12-29T05:33:47;9.50;99.90
70368;DHT22;57789;53.868;10.728;2022-12-29T05:36:13;9.50;99.90
70368;DHT22;57789;53.868;10.728;2022-12-29T05:38:43;9.50;99.90
70368;DHT22;57789;53.868;10.728;2022-12-29T05:41:09;9.50;99.90
70368;DHT22;57789;53.868;10.728;2022-12-29T05:43:35;9.40;99.90
70368;DHT22;57789;53.868;10.728;2022-12-29T05:46:01;9.40;99.90
70368;DHT22;57789;53.868;10.728;2022-12-29T05:48:27;9.40;99.90
70368;DHT22;57789;53.868;10.728;2022-12-29T05:50:53;9.30;99.90
70368;DHT22;57789;53.868;10.728;2022-12-29T05:53:19;9.30;99.90
70368;DHT22;57789;53.868;10.728;2022-12-29T05:55:54;9.20;99.90
70368;DHT22;57789;53.868;10.728;2022-12-29T05:58:20;9.20;99.90
70368;DHT22;57789;53.868;10.728;2022-12-29T06:00:48;9.20;99.90
70368;DHT22;57789;53.868;10.728;2022-12-29T06:03:16;9.20;99.90
70368;DHT22;57789;53.868;10.728;2022-12-29T06:05:45;9.20;99.90
70368;DHT22;57789;53.868;10.728;2022-12-29T06:08:12;9.20;99.90
70368;DHT22;57789;53.868;10.728;2022-12-29T06:10:38;9.20;99.90
70368;DHT22;57789;53.868;10.728;2022-12-29T06:13:04;9.20;99.90
70368;DHT22;57789;53.868;10.728;2022-12-29T06:15:31;9.30;99.90
70368;DHT22;57789;53.868;10.728;2022-12-29T06:17:58;9.30;99.90
70368;DHT22;57789;53.868;10.728;2022-12-29T06:20:28;9.20;99.90
70368;DHT22;57789;53.868;10.728;2022-12-29T06:22:59;9.20;99.90
70368;DHT22;57789;53.868;10.728;2022-12-29T06:25:30;9.20;99.90
70368;DHT22;57789;53.868;10.728;2022-12-29T06:28:00;9.30;99.90
70368;DHT22;57789;53.868;10.728;2022-12-29T06:30:31;9.30;99.90
70368;DHT22;57789;53.868;10.728;2022-12-29T06:33:00;9.30;99.90
70368;DHT22;57789;53.868;10.728;2022-12-29T06:35:30;9.30;99.90
70368;DHT22;57789;53.868;10.728;2022-12-29T06:38:02;9.30;99.90
70368;DHT22;57789;53.868;10.728;2022-12-29T06:40:29;9.40;99.90
70368;DHT22;57789;53.868;10.728;2022-12-29T06:42:55;9.40;99.90
70368;DHT22;57789;53.868;10.728;2022-12-29T06:45:21;9.40;99.90
70368;DHT22;57789;53.868;10.728;2022-12-29T06:47:49;9.40;99.90
70368;DHT22;57789;53.868;10.728;2022-12-29T06:50:19;9.40;99.90
70368;DHT22;57789;53.868;10.728;2022-12-29T06:52:47;9.50;99.90
70368;DHT22;57789;53.868;10.728;2022-12-29T06:55:15;9.50;99.90
70368;DHT22;57789;53.868;10.728;2022-12-29T06:57:41;9.50;99.90
70368;DHT22;57789;53.868;10.728;2022-12-29T07:00:09;9.50;99.90
70368;DHT22;57789;53.868;10.728;2022-12-29T07:02:36;9.60;99.90
70368;DHT22;57789;53.868;10.728;2022-12-29T07:05:02;9.60;99.90
70368;DHT22;57789;53.868;10.728;2022-12-29T07:07:28;9.60;99.90
70368;DHT22;57789;53.868;10.728;2022-12-29T07:09:55;9.60;99.90
70368;DHT22;57789;53.868;10.728;2022-12-29T07:12:21;9.60;99.90
70368;DHT22;57789;53.868;10.728;2022-12-29T07:14:50;9.50;99.90
70368;DHT22;57789;53.868;10.728;2022-12-29T07:17:17;9.50;99.90
70368;DHT22;57789;53.868;10.728;2022-12-29T07:19:43;9.40;99.90
70368;DHT22;57789;53.868;10.728;2022-12-29T07:22:09;9.40;99.90
70368;DHT22;57789;53.868;10.728;2022-12-29T07:24:38;9.40;99.90
70368;DHT22;57789;53.868;10.728;2022-12-29T07:27:09;9.40;99.90
70368;DHT22;57789;53.868;10.728;2022-12-29T07:29:37;9.50;99.90
70368;DHT22;57789;53.868;10.728;2022-12-29T07:32:04;9.50;99.90
70368;DHT22;57789;53.868;10.728;2022-12-29T07:34:32;9.50;99.90
70368;DHT22;57789;53.868;10.728;2022-12-29T07:36:57;9.50;99.90
70368;DHT22;57789;53.868;10.728;2022-12-29T07:39:23;9.50;99.90
70368;DHT22;57789;53.868;10.728;2022-12-29T07:41:49;9.40;99.90
70368;DHT22;57789;53.868;10.728;2022-12-29T07:44:15;9.30;99.90
70368;DHT22;57789;53.868;10.728;2022-12-29T07:46:42;9.30;99.90
70368;DHT22;57789;53.868;10.728;2022-12-29T07:49:08;9.30;99.90
70368;DHT22;57789;53.868;10.728;2022-12-29T07:51:34;9.30;99.90
70368;DHT22;57789;53.868;10.728;2022-12-29T07:54:00;9.40;99.90
70368;DHT22;57789;53.868;10.728;2022-12-29T07:56:26;9.40;99.90
70368;DHT22;57789;53.868;10.728;2022-12-29T07:58:52;9.30;99.90
70368;DHT22;57789;53.868;10.728;2022-12-29T08:01:18;9.40;99.90
70368;DHT22;57789;53.868;10.728;2022-12-29T08:03:44;9.40;99.90
70368;DHT22;57789;53.868;10.728;2022-12-29T08:06:11;9.40;99.90
70368;DHT22;57789;53.868;10.728;2022-12-29T08:08:40;9.40;99.90
70368;DHT22;57789;53.868;10.728;2022-12-29T08:11:06;9.40;99.90
70368;DHT22;57789;53.868;10.728;2022-12-29T08:13:35;9.40;99.90
70368;DHT22;57789;53.868;10.728;2022-12-29T08:16:05;9.40;99.90
70368;DHT22;57789;53.868;10.728;2022-12-29T08:18:31;9.40;99.90
70368;DHT22;57789;53.868;10.728;2022-12-29T08:21:02;9.40;99.90
70368;DHT22;57789;53.868;10.728;2022-12-29T08:23:32;9.40;99.90
70368;DHT22;57789;53.868;10.728;2022-12-29T08:26:04;9.40;99.90
70368;DHT22;57789;53.868;10.728;2022-12-29T08:28:31;9.40;99.90
70368;DHT22;57789;53.868;10.728;2022-12-29T08:31:01;9.40;99.90
70368;DHT22;57789;53.868;10.728;2022-12-29T08:33:29;9.50;99.90
70368;DHT22;57789;53.868;10.728;2022-12-29T08:36:03;9.50;99.90
70368;DHT22;57789;53.868;10.728;2022-12-29T08:38:30;9.50;99.90
70368;DHT22;57789;53.868;10.728;2022-12-29T08:40:59;9.50;99.90
70368;DHT22;57789;53.868;10.728;2022-12-29T08:43:28;9.50;99.90
70368;DHT22;57789;53.868;10.728;2022-12-29T08:45:53;9.50;99.90
70368;DHT22;57789;53.868;10.728;2022-12-29T08:48:20;9.50;99.90
70368;DHT22;57789;53.868;10.728;2022-12-29T08:50:48;9.50;99.90
70368;DHT22;57789;53.868;10.728;2022-12-29T08:53:14;9.50;99.90
70368;DHT22;57789;53.868;10.728;2022-12-29T08:55:43;9.50;99.90
70368;DHT22;57789;53.868;10.728;2022-12-29T08:58:09;9.50;99.90
70368;DHT22;57789;53.868;10.728;2022-12-29T09:00:42;9.60;99.90
70368;DHT22;57789;53.868;10.728;2022-12-29T09:03:08;9.60;99.90
70368;DHT22;57789;53.868;10.728;2022-12-29T09:05:36;9.60;99.90
70368;DHT22;57789;53.868;10.728;2022-12-29T09:08:03;9.70;99.90
70368;DHT22;57789;53.868;10.728;2022-12-29T09:10:35;9.70;99.90
70368;DHT22;57789;53.868;10.728;2022-12-29T09:13:09;9.80;99.90
70368;DHT22;57789;53.868;10.728;2022-12-29T09:15:37;9.90;99.90
70368;DHT22;57789;53.868;10.728;2022-12-29T09:18:03;9.90;99.90
70368;DHT22;57789;53.868;10.728;2022-12-29T09:20:31;9.90;99.90
70368;DHT22;57789;53.868;10.728;2022-12-29T09:23:01;9.80;99.90
70368;DHT22;57789;53.868;10.728;2022-12-29T09:25:30;9.80;99.90
70368;DHT22;57789;53.868;10.728;2022-12-29T09:27:56;9.80;99.90
70368;DHT22;57789;53.868;10.728;2022-12-29T09:30:23;9.80;99.90
70368;DHT22;57789;53.868;10.728;2022-12-29T09:32:50;9.80;99.90
70368;DHT22;57789;53.868;10.728;2022-12-29T09:35:18;9.90;99.90
70368;DHT22;57789;53.868;10.728;2022-12-29T09:37:45;9.90;99.90
70368;DHT22;57789;53.868;10.728;2022-12-29T09:40:31;9.90;99.90
70368;DHT22;57789;53.868;10.728;2022-12-29T09:43:14;10.00;99.90
70368;DHT22;57789;53.868;10.728;2022-12-29T09:48:30;10.10;99.90
70368;DHT22;57789;53.868;10.728;2022-12-29T09:51:00;10.10;99.90
70368;DHT22;57789;53.868;10.728;2022-12-29T09:53:37;10.10;99.90
70368;DHT22;57789;53.868;10.728;2022-12-29T09:56:05;10.10;99.90
70368;DHT22;57789;53.868;10.728;2022-12-29T09:59:00;10.10;99.90
70368;DHT22;57789;53.868;10.728;2022-12-29T10:04:07;10.20;99.90
70368;DHT22;57789;53.868;10.728;2022-12-29T10:06:48;10.20;99.90
70368;DHT22;57789;53.868;10.728;2022-12-29T10:15:03;10.30;99.90
70368;DHT22;57789;53.868;10.728;2022-12-29T10:17:39;10.40;99.90
70368;DHT22;57789;53.868;10.728;2022-12-29T10:20:20;10.50;99.90
70368;DHT22;57789;53.868;10.728;2022-12-29T10:25:46;10.70;99.90
70368;DHT22;57789;53.868;10.728;2022-12-29T10:28:23;10.70;99.90
70368;DHT22;57789;53.868;10.728;2022-12-29T10:30:54;10.70;99.90
70368;DHT22;57789;53.868;10.728;2022-12-29T10:33:32;10.80;99.90
70368;DHT22;57789;53.868;10.728;2022-12-29T10:36:48;10.80;99.90
70368;DHT22;57789;53.868;10.728;2022-12-29T10:39:13;10.90;99.90
70368;DHT22;57789;53.868;10.728;2022-12-29T10:44:22;10.80;99.90
70368;DHT22;57789;53.868;10.728;2022-12-29T10:47:13;10.70;99.90
70368;DHT22;57789;53.868;10.728;2022-12-29T10:49:44;10.80;99.90
70368;DHT22;57789;53.868;10.728;2022-12-29T10:52:20;10.70;99.90
70368;DHT22;57789;53.868;10.728;2022-12-29T10:57:37;10.80;99.90
70368;DHT22;57789;53.868;10.728;2022-12-29T11:00:18;10.80;99.90
70368;DHT22;57789;53.868;10.728;2022-12-29T11:05:44;10.90;99.90
70368;DHT22;57789;53.868;10.728;2022-12-29T11:08:18;10.80;99.90
70368;DHT22;57789;53.868;10.728;2022-12-29T11:10:56;10.90;99.90
70368;DHT22;57789;53.868;10.728;2022-12-29T11:13:28;11.00;99.90
70368;DHT22;57789;53.868;10.728;2022-12-29T11:15:54;11.10;99.90
70368;DHT22;57789;53.868;10.728;2022-12-29T11:18:35;11.30;99.90
70368;DHT22;57789;53.868;10.728;2022-12-29T11:21:09;11.60;99.90
70368;DHT22;57789;53.868;10.728;2022-12-29T11:24:04;11.90;99.90
70368;DHT22;57789;53.868;10.728;2022-12-29T11:26:32;11.80;99.90
70368;DHT22;57789;53.868;10.728;2022-12-29T11:29:20;11.80;99.90
70368;DHT22;57789;53.868;10.728;2022-12-29T11:31:55;11.70;99.90
70368;DHT22;57789;53.868;10.728;2022-12-29T11:34:31;11.70;99.90
70368;DHT22;57789;53.868;10.728;2022-12-29T11:37:11;11.70;99.90
70368;DHT22;57789;53.868;10.728;2022-12-29T11:42:22;11.60;99.90
70368;DHT22;57789;53.868;10.728;2022-12-29T11:44:49;11.50;99.90
70368;DHT22;57789;53.868;10.728;2022-12-29T11:47:30;11.40;99.90
70368;DHT22;57789;53.868;10.728;2022-12-29T11:50:07;11.40;99.90
70368;DHT22;57789;53.868;10.728;2022-12-29T11:52:36;11.20;99.90
70368;DHT22;57789;53.868;10.728;2022-12-29T11:55:13;11.20;99.90
70368;DHT22;57789;53.868;10.728;2022-12-29T11:57:42;11.20;99.90
70368;DHT22;57789;53.868;10.728;2022-12-29T12:00:22;11.10;99.90
70368;DHT22;57789;53.868;10.728;2022-12-29T12:03:22;11.20;99.90
70368;DHT22;57789;53.868;10.728;2022-12-29T12:06:01;11.20;99.90
70368;DHT22;57789;53.868;10.728;2022-12-29T12:08:45;11.40;99.90
70368;DHT22;57789;53.868;10.728;2022-12-29T12:11:33;11.50;99.90
70368;DHT22;57789;53.868;10.728;2022-12-29T12:14:27;11.40;99.90
70368;DHT22;57789;53.868;10.728;2022-12-29T12:16:57;11.40;99.90
70368;DHT22;57789;53.868;10.728;2022-12-29T12:22:45;11.40;99.90
70368;DHT22;57789;53.868;10.728;2022-12-29T12:25:25;11.30;99.90
70368;DHT22;57789;53.868;10.728;2022-12-29T12:28:00;11.20;99.90
70368;DHT22;57789;53.868;10.728;2022-12-29T12:30:29;11.10;99.90
70368;DHT22;57789;53.868;10.728;2022-12-29T12:33:22;11.10;99.90
70368;DHT22;57789;53.868;10.728;2022-12-29T13:09:46;10.70;99.90
70368;DHT22;57789;53.868;10.728;2022-12-29T13:17:49;10.70;99.90
70368;DHT22;57789;53.868;10.728;2022-12-29T13:28:53;10.70;99.90
70368;DHT22;57789;53.868;10.728;2022-12-29T13:36:40;10.70;99.90
70368;DHT22;57789;53.868;10.728;2022-12-29T13:39:31;10.70;99.90
70368;DHT22;57789;53.868;10.728;2022-12-29T13:42:01;10.60;99.90
70368;DHT22;57789;53.868;10.728;2022-12-29T13:44:40;10.70;99.90
70368;DHT22;57789;53.868;10.728;2022-12-29T13:47:38;10.60;99.90
70368;DHT22;57789;53.868;10.728;2022-12-29T13:50:14;10.50;99.90
70368;DHT22;57789;53.868;10.728;2022-12-29T14:00:59;10.40;99.90
70368;DHT22;57789;53.868;10.728;2022-12-29T14:06:38;10.50;99.90
70368;DHT22;57789;53.868;10.728;2022-12-29T14:09:00;10.50;99.90
70368;DHT22;57789;53.868;10.728;2022-12-29T14:11:39;10.40;99.90
70368;DHT22;57789;53.868;10.728;2022-12-29T14:14:21;10.30;99.90
70368;DHT22;57789;53.868;10.728;2022-12-29T14:16:48;10.30;99.90
70368;DHT22;57789;53.868;10.728;2022-12-29T14:19:35;10.20;99.90
70368;DHT22;57789;53.868;10.728;2022-12-29T14:22:05;10.20;99.90
70368;DHT22;57789;53.868;10.728;2022-12-29T14:29:50;9.70;99.90
70368;DHT22;57789;53.868;10.728;2022-12-29T14:34:53;9.60;99.90
70368;DHT22;57789;53.868;10.728;2022-12-29T14:37:28;9.50;99.90
70368;DHT22;57789;53.868;10.728;2022-12-29T14:40:17;9.50;99.90
70368;DHT22;57789;53.868;10.728;2022-12-29T14:42:44;9.50;99.90
70368;DHT22;57789;53.868;10.728;2022-12-29T14:47:48;9.30;99.90
70368;DHT22;57789;53.868;10.728;2022-12-29T14:50:34;9.30;99.90
70368;DHT22;57789;53.868;10.728;2022-12-29T14:53:04;9.20;99.90
70368;DHT22;57789;53.868;10.728;2022-12-29T14:58:25;9.00;99.90
70368;DHT22;57789;53.868;10.728;2022-12-29T15:00:52;9.00;99.90
70368;DHT22;57789;53.868;10.728;2022-12-29T15:03:44;9.00;99.90
70368;DHT22;57789;53.868;10.728;2022-12-29T15:06:15;9.00;99.90
70368;DHT22;57789;53.868;10.728;2022-12-29T15:09:10;8.90;99.90
70368;DHT22;57789;53.868;10.728;2022-12-29T15:11:53;8.90;99.90
70368;DHT22;57789;53.868;10.728;2022-12-29T15:14:33;8.80;99.90
70368;DHT22;57789;53.868;10.728;2022-12-29T15:19:57;8.80;99.90
70368;DHT22;57789;53.868;10.728;2022-12-29T15:22:24;8.80;99.90
70368;DHT22;57789;53.868;10.728;2022-12-29T15:25:00;8.80;99.90
70368;DHT22;57789;53.868;10.728;2022-12-29T15:27:32;8.80;99.90
70368;DHT22;57789;53.868;10.728;2022-12-29T15:30:01;8.80;99.90
70368;DHT22;57789;53.868;10.728;2022-12-29T15:32:29;8.70;99.90
70368;DHT22;57789;53.868;10.728;2022-12-29T15:35:33;8.70;99.90
70368;DHT22;57789;53.868;10.728;2022-12-29T15:38:00;8.60;99.90
70368;DHT22;57789;53.868;10.728;2022-12-29T15:40:32;8.60;99.90
70368;DHT22;57789;53.868;10.728;2022-12-29T15:45:36;8.50;99.90
70368;DHT22;57789;53.868;10.728;2022-12-29T15:48:04;8.50;99.90
70368;DHT22;57789;53.868;10.728;2022-12-29T15:50:33;8.50;99.90
70368;DHT22;57789;53.868;10.728;2022-12-29T15:53:00;8.40;99.90
70368;DHT22;57789;53.868;10.728;2022-12-29T15:55:34;8.40;99.90
70368;DHT22;57789;53.868;10.728;2022-12-29T15:58:04;8.40;99.90
70368;DHT22;57789;53.868;10.728;2022-12-29T16:00:33;8.50;99.90
70368;DHT22;57789;53.868;10.728;2022-12-29T16:03:03;8.50;99.90
70368;DHT22;57789;53.868;10.728;2022-12-29T16:05:37;8.50;99.90
70368;DHT22;57789;53.868;10.728;2022-12-29T16:08:31;8.40;99.90
70368;DHT22;57789;53.868;10.728;2022-12-29T16:11:01;8.50;99.90
70368;DHT22;57789;53.868;10.728;2022-12-29T16:13:38;8.40;99.90
70368;DHT22;57789;53.868;10.728;2022-12-29T16:16:27;8.40;99.90
70368;DHT22;57789;53.868;10.728;2022-12-29T16:19:11;8.30;99.90
70368;DHT22;57789;53.868;10.728;2022-12-29T16:21:51;8.30;99.90
70368;DHT22;57789;53.868;10.728;2022-12-29T16:25:01;8.30;99.90
70368;DHT22;57789;53.868;10.728;2022-12-29T16:27:42;8.20;99.90
70368;DHT22;57789;53.868;10.728;2022-12-29T16:30:35;8.20;99.90
70368;DHT22;57789;53.868;10.728;2022-12-29T16:33:32;8.20;99.90
70368;DHT22;57789;53.868;10.728;2022-12-29T16:36:39;8.20;99.90
70368;DHT22;57789;53.868;10.728;2022-12-29T16:39:35;8.10;99.90
70368;DHT22;57789;53.868;10.728;2022-12-29T16:42:34;8.00;99.90
70368;DHT22;57789;53.868;10.728;2022-12-29T16:50:34;7.90;99.90
70368;DHT22;57789;53.868;10.728;2022-12-29T16:53:01;7.90;99.90
70368;DHT22;57789;53.868;10.728;2022-12-29T16:55:29;7.90;99.90
70368;DHT22;57789;53.868;10.728;2022-12-29T16:57:55;7.90;99.90
70368;DHT22;57789;53.868;10.728;2022-12-29T17:00:32;7.90;99.90
70368;DHT22;57789;53.868;10.728;2022-12-29T17:02:59;7.80;99.90
70368;DHT22;57789;53.868;10.728;2022-12-29T17:05:26;7.80;99.90
70368;DHT22;57789;53.868;10.728;2022-12-29T17:07:51;7.80;99.90
70368;DHT22;57789;53.868;10.728;2022-12-29T17:10:18;7.80;99.90
70368;DHT22;57789;53.868;10.728;2022-12-29T17:12:47;7.70;99.90
70368;DHT22;57789;53.868;10.728;2022-12-29T17:15:34;7.70;99.90
70368;DHT22;57789;53.868;10.728;2022-12-29T17:18:00;7.60;99.90
70368;DHT22;57789;53.868;10.728;2022-12-29T17:20:30;7.60;99.90
70368;DHT22;57789;53.868;10.728;2022-12-29T17:22:57;7.60;99.90
70368;DHT22;57789;53.868;10.728;2022-12-29T17:25:29;7.50;99.90
70368;DHT22;57789;53.868;10.728;2022-12-29T17:28:02;7.50;99.90
70368;DHT22;57789;53.868;10.728;2022-12-29T17:30:31;7.50;99.90
70368;DHT22;57789;53.868;10.728;2022-12-29T17:33:04;7.50;99.90
70368;DHT22;57789;53.868;10.728;2022-12-29T17:35:30;7.50;99.90
70368;DHT22;57789;53.868;10.728;2022-12-29T17:38:16;7.50;99.90
70368;DHT22;57789;53.868;10.728;2022-12-29T17:40:42;7.50;99.90
70368;DHT22;57789;53.868;10.728;2022-12-29T17:43:10;7.50;99.90
70368;DHT22;57789;53.868;10.728;2022-12-29T17:45:38;7.50;99.90
70368;DHT22;57789;53.868;10.728;2022-12-29T17:48:15;7.40;99.90
70368;DHT22;57789;53.868;10.728;2022-12-29T17:50:43;7.40;99.90
70368;DHT22;57789;53.868;10.728;2022-12-29T17:53:23;7.40;99.90
70368;DHT22;57789;53.868;10.728;2022-12-29T17:55:55;7.40;99.90
70368;DHT22;57789;53.868;10.728;2022-12-29T17:58:26;7.40;99.90
70368;DHT22;57789;53.868;10.728;2022-12-29T18:01:02;7.30;99.90
70368;DHT22;57789;53.868;10.728;2022-12-29T18:03:34;7.40;99.90
70368;DHT22;57789;53.868;10.728;2022-12-29T18:06:00;7.30;99.90
70368;DHT22;57789;53.868;10.728;2022-12-29T18:08:29;7.30;99.90
70368;DHT22;57789;53.868;10.728;2022-12-29T18:10:55;7.20;99.90
70368;DHT22;57789;53.868;10.728;2022-12-29T18:13:26;7.20;99.90
70368;DHT22;57789;53.868;10.728;2022-12-29T18:15:54;7.10;99.90
70368;DHT22;57789;53.868;10.728;2022-12-29T18:18:24;7.10;99.90
70368;DHT22;57789;53.868;10.728;2022-12-29T18:20:52;7.10;99.90
70368;DHT22;57789;53.868;10.728;2022-12-29T18:23:27;7.10;99.90
70368;DHT22;57789;53.868;10.728;2022-12-29T18:28:28;7.10;99.90
70368;DHT22;57789;53.868;10.728;2022-12-29T18:30:58;7.00;99.90
70368;DHT22;57789;53.868;10.728;2022-12-29T18:33:26;7.10;99.90